Time;durP1;ratioP1;P1;durP2;ratioP2;P2;SDS_P1;SDS_P2;PMS_P1;PMS_P2;Temp;Humidity;BMP_temperature;BMP_pressure;BME280_temperature;BME280_humidity;BME280_pressure;Samples;Min_cycle;Max_cycle;Signal;HPM_P1;HPM_P2
2022/10/29 00:02:24;;;;;;;16.75;4.68;;;;;;;15.92;80.72;101070.84;5042744;28;21087;-83
2022/10/29 00:04:50;;;;;;;9.93;4.57;;;;;;;15.92;80.81;101073.56;5033995;28;20407;-83
2022/10/29 00:07:15;;;;;;;15.57;4.73;;;;;;;15.94;80.94;101076.84;5030617;28;20426;-84
2022/10/29 00:09:40;;;;;;;9.93;4.40;;;;;;;15.95;80.76;101074.94;5041332;28;20459;-82
2022/10/29 00:12:06;;;;;;;16.93;4.90;;;;;;;15.92;80.75;101075.47;5036698;28;20394;-84
2022/10/29 00:14:32;;;;;;;13.50;4.53;;;;;;;15.89;80.78;101076.84;5029568;28;20401;-83
2022/10/29 00:16:57;;;;;;;17.33;4.93;;;;;;;15.90;80.66;101064.81;5028184;28;20406;-83
2022/10/29 00:19:23;;;;;;;19.90;5.20;;;;;;;15.88;80.89;101072.44;5040251;28;20497;-83
2022/10/29 00:21:51;;;;;;;16.30;5.40;;;;;;;15.89;80.97;101074.09;5038513;28;20399;-84
2022/10/29 00:24:17;;;;;;;18.20;5.82;;;;;;;15.89;81.00;101065.06;5030969;28;20387;-83
2022/10/29 00:26:42;;;;;;;21.73;7.37;;;;;;;15.87;81.28;101064.53;5030156;28;20419;-83
2022/10/29 00:29:10;;;;;;;27.10;8.27;;;;;;;15.89;81.20;101070.53;5036303;28;20402;-83
2022/10/29 00:31:35;;;;;;;23.85;8.45;;;;;;;15.88;81.07;101066.16;5040876;28;20872;-83
2022/10/29 00:34:01;;;;;;;29.20;9.63;;;;;;;15.90;80.96;101066.72;5034808;28;20415;-83
2022/10/29 00:36:28;;;;;;;11.80;6.23;;;;;;;15.90;81.28;101064.00;5054676;28;20661;-83
2022/10/29 00:38:55;;;;;;;14.33;5.77;;;;;;;15.95;80.85;101064.00;5036589;28;20524;-83
2022/10/29 00:41:27;;;;;;;11.38;4.72;;;;;;;15.97;80.62;101065.38;5041910;28;20472;-83
2022/10/29 00:44:17;;;;;;;11.35;4.82;;;;;;;15.96;80.68;101057.47;5056562;28;20443;-84
2022/10/29 00:46:47;;;;;;;18.52;6.65;;;;;;;15.94;80.81;101060.44;5052495;28;20413;-83
2022/10/29 00:49:15;;;;;;;16.23;7.20;;;;;;;15.92;80.69;101057.16;5045068;28;20455;-83
2022/10/29 00:51:40;;;;;;;13.52;7.05;;;;;;;15.89;80.65;101068.66;5058756;28;20476;-84
2022/10/29 00:54:08;;;;;;;12.88;6.22;;;;;;;15.82;80.83;101068.06;5057832;28;20460;-83
2022/10/29 00:56:38;;;;;;;15.05;5.35;;;;;;;15.76;80.92;101071.84;5053114;28;20390;-84
2022/10/29 00:59:06;;;;;;;15.80;5.50;;;;;;;15.75;81.03;101075.66;5055204;28;20862;-83
2022/10/29 01:01:32;;;;;;;22.92;5.93;;;;;;;15.77;80.93;101081.69;5051793;28;20397;-83
2022/10/29 01:03:59;;;;;;;17.73;5.43;;;;;;;15.74;81.23;101068.53;5054139;28;20947;-84
2022/10/29 01:06:27;;;;;;;26.63;4.57;;;;;;;15.75;81.01;101066.63;5057321;28;20417;-83
2022/10/29 01:08:52;;;;;;;13.88;4.43;;;;;;;15.74;81.08;101070.47;5052288;28;20848;-83
2022/10/29 01:12:02;;;;;;;15.75;5.00;;;;;;;15.71;80.87;101069.06;5047553;28;20496;-84
2022/10/29 01:14:54;;;;;;;43.28;5.32;;;;;;;15.73;80.64;101068.81;5054269;28;20397;-83
2022/10/29 01:17:29;;;;;;;20.48;5.45;;;;;;;15.71;80.39;101063.59;5014918;28;20830;-83
2022/10/29 01:20:18;;;;;;;16.35;4.53;;;;;;;15.71;80.33;101062.81;5041861;28;20755;-84
2022/10/29 01:23:10;;;;;;;14.48;4.63;;;;;;;15.69;80.47;101068.53;5058070;28;20409;-83
2022/10/29 01:26:06;;;;;;;11.95;4.57;;;;;;;15.65;80.29;101055.63;5051384;28;20504;-83
2022/10/29 01:29:06;;;;;;;6.20;3.65;;;;;;;15.62;80.41;101057.00;5052633;28;20432;-83
2022/10/29 01:31:34;;;;;;;14.45;4.13;;;;;;;15.58;80.41;101056.69;5052056;28;20391;-83
2022/10/29 01:34:16;;;;;;;14.20;4.93;;;;;;;15.59;80.30;101049.31;5050722;28;20748;-83
2022/10/29 01:37:13;;;;;;;24.15;4.60;;;;;;;15.56;80.31;101052.59;5035643;28;20768;-83
2022/10/29 01:39:57;;;;;;;15.05;4.40;;;;;;;15.55;80.27;101051.75;5027628;28;20768;-84
2022/10/29 01:42:41;;;;;;;22.95;5.15;;;;;;;15.54;80.07;101043.84;5058268;28;20409;-83
2022/10/29 01:45:22;;;;;;;14.25;4.10;;;;;;;15.49;80.03;101041.88;5048793;28;20435;-83
2022/10/29 01:47:56;;;;;;;21.83;5.07;;;;;;;15.51;79.88;101036.19;5052803;28;20401;-83
2022/10/29 01:50:23;;;;;;;40.38;5.07;;;;;;;15.47;79.81;101040.47;5050230;28;20472;-83
2022/10/29 01:52:50;;;;;;;36.08;4.72;;;;;;;15.47;79.73;101029.56;5056279;28;20392;-83
2022/10/29 01:55:28;;;;;;;12.35;4.22;;;;;;;15.44;79.71;101027.34;5055503;28;20393;-83
2022/10/29 01:57:54;;;;;;;14.18;4.22;;;;;;;15.44;79.44;101032.81;5035668;28;20397;-84
2022/10/29 02:00:22;;;;;;;15.60;4.47;;;;;;;15.42;79.39;101035.78;5050361;28;20431;-83
2022/10/29 02:02:59;;;;;;;21.58;4.90;;;;;;;15.36;79.76;101036.84;5056404;28;20407;-83
2022/10/29 02:05:37;;;;;;;15.02;4.28;;;;;;;15.32;79.86;101035.72;5054914;28;20405;-83
2022/10/29 02:08:11;;;;;;;14.10;4.30;;;;;;;15.33;79.85;101033.81;5051703;28;20389;-83
2022/10/29 02:10:44;;;;;;;12.68;4.18;;;;;;;15.32;79.72;101032.16;5053765;28;20392;-83
2022/10/29 02:13:13;;;;;;;17.27;4.95;;;;;;;15.31;79.83;101030.53;5052543;28;20393;-83
2022/10/29 02:15:44;;;;;;;20.80;4.77;;;;;;;15.31;79.60;101022.34;5057016;28;20414;-83
2022/10/29 02:18:09;;;;;;;25.77;4.73;;;;;;;15.25;79.77;101029.66;5054378;28;20406;-83
2022/10/29 02:20:40;;;;;;;14.37;4.50;;;;;;;15.18;79.93;101022.78;5034655;28;20402;-83
2022/10/29 02:23:06;;;;;;;33.25;4.90;;;;;;;15.10;80.34;101023.25;5055555;28;20441;-83
2022/10/29 02:25:31;;;;;;;23.67;3.92;;;;;;;15.05;80.63;101016.69;5048630;28;20449;-83
2022/10/29 02:27:56;;;;;;;23.27;4.77;;;;;;;15.05;80.24;101018.56;5055841;28;20453;-83
2022/10/29 02:30:22;;;;;;;11.77;4.73;;;;;;;15.05;80.32;101010.38;5052924;28;20860;-83
2022/10/29 02:32:47;;;;;;;14.00;3.97;;;;;;;15.04;80.19;101015.06;5036993;28;20417;-84
2022/10/29 02:35:12;;;;;;;11.60;4.97;;;;;;;15.08;80.21;101007.97;5051513;28;20405;-83
2022/10/29 02:37:37;;;;;;;38.07;4.93;;;;;;;15.09;80.15;101019.72;5048760;28;20405;-83
2022/10/29 02:40:03;;;;;;;12.93;4.47;;;;;;;15.06;79.79;101021.06;5054198;28;20490;-83
2022/10/29 02:42:28;;;;;;;19.27;4.30;;;;;;;15.03;79.63;101018.84;5049951;28;20410;-83
2022/10/29 02:44:54;;;;;;;17.40;4.23;;;;;;;15.04;79.72;101016.94;5053555;28;20425;-83
2022/10/29 02:47:19;;;;;;;16.23;4.37;;;;;;;15.04;79.58;101016.94;5038672;28;20486;-84
2022/10/29 02:49:44;;;;;;;12.10;4.20;;;;;;;15.04;79.85;101008.75;5054922;28;20423;-84
2022/10/29 02:52:10;;;;;;;21.25;5.05;;;;;;;15.02;79.71;101021.81;5049827;28;20760;-84
2022/10/29 02:54:35;;;;;;;19.90;4.33;;;;;;;14.98;79.79;101020.72;5054716;28;20401;-83
2022/10/29 02:57:00;;;;;;;11.17;4.57;;;;;;;14.98;79.60;101004.34;5049135;28;20409;-83
2022/10/29 02:59:26;;;;;;;11.98;4.53;;;;;;;14.99;79.64;101005.97;5045565;28;20868;-84
2022/10/29 03:01:54;;;;;;;13.37;4.50;;;;;;;14.99;79.63;101005.97;5053338;28;20404;-83
2022/10/29 03:04:19;;;;;;;12.07;4.18;;;;;;;14.94;79.77;101006.78;5052362;28;20397;-84
2022/10/29 03:06:44;;;;;;;21.57;5.17;;;;;;;14.90;79.90;101002.91;5030496;28;20469;-83
2022/10/29 03:09:10;;;;;;;18.07;4.63;;;;;;;14.90;79.82;101005.66;5052211;28;20410;-83
2022/10/29 03:11:35;;;;;;;10.27;3.97;;;;;;;14.88;79.50;100998.81;5056461;28;20434;-83
2022/10/29 03:14:00;;;;;;;9.35;4.00;;;;;;;14.83;79.73;100996.84;5048894;28;20476;-83
2022/10/29 03:16:26;;;;;;;14.90;4.43;;;;;;;14.79;79.71;100986.69;5032284;28;20903;-83
2022/10/29 03:18:51;;;;;;;12.50;4.10;;;;;;;14.76;79.79;100988.03;5048716;28;20433;-83
2022/10/29 03:21:16;;;;;;;13.23;3.67;;;;;;;14.74;79.54;100983.94;5051832;28;20897;-84
2022/10/29 03:23:41;;;;;;;13.97;3.27;;;;;;;14.73;79.39;100979.56;5033923;28;20745;-84
2022/10/29 03:26:08;;;;;;;11.83;3.67;;;;;;;14.69;79.48;100976.53;5051538;28;20449;-83
2022/10/29 03:28:33;;;;;;;10.65;3.00;;;;;;;14.64;79.20;100983.84;5051762;28;20872;-84
2022/10/29 03:30:58;;;;;;;11.50;3.53;;;;;;;14.59;79.47;100992.78;5030951;28;20405;-84
2022/10/29 03:33:25;;;;;;;9.67;4.77;;;;;;;14.56;79.24;100987.84;5049120;28;20399;-83
2022/10/29 03:36:02;;;;;;;11.02;4.00;;;;;;;14.54;79.32;100981.84;5017781;28;20425;-83
2022/10/29 03:38:28;;;;;;;13.07;3.60;;;;;;;14.52;79.07;100990.28;5038340;28;20403;-83
2022/10/29 03:40:54;;;;;;;6.22;3.53;;;;;;;14.51;79.26;100994.09;5040641;28;20445;-83
2022/10/29 03:43:19;;;;;;;11.52;4.03;;;;;;;14.49;79.60;100995.41;5038552;28;20747;-83
2022/10/29 03:45:52;;;;;;;21.48;4.38;;;;;;;14.49;79.24;100996.25;5039956;28;20413;-83
2022/10/29 03:48:17;;;;;;;8.95;3.53;;;;;;;14.50;79.53;100994.34;5038420;28;20496;-83
2022/10/29 03:50:43;;;;;;;12.37;4.23;;;;;;;14.50;79.26;101003.34;5039821;28;20546;-83
2022/10/29 03:53:09;;;;;;;10.70;3.53;;;;;;;14.49;79.40;100996.25;5038573;28;20420;-83
2022/10/29 03:55:34;;;;;;;10.05;3.35;;;;;;;14.52;79.34;101000.38;5039687;28;20409;-83
2022/10/29 03:58:00;;;;;;;22.40;4.07;;;;;;;14.47;79.73;101003.88;5039566;28;20904;-83
2022/10/29 04:00:25;;;;;;;10.07;3.93;;;;;;;14.46;79.90;100999.50;5050482;28;20411;-83
2022/10/29 04:02:50;;;;;;;15.75;4.35;;;;;;;14.47;79.66;101003.06;5028966;28;20409;-83
2022/10/29 04:05:16;;;;;;;20.13;3.80;;;;;;;14.46;79.66;101002.22;5038592;28;20459;-83
2022/10/29 04:07:41;;;;;;;10.97;3.90;;;;;;;14.41;79.96;101010.38;5039676;28;20884;-83
2022/10/29 04:10:06;;;;;;;9.80;3.87;;;;;;;14.47;79.32;101001.16;5042935;28;20480;-83
2022/10/29 04:12:32;;;;;;;12.33;3.73;;;;;;;14.39;79.56;100993.41;5025733;28;20989;-83
2022/10/29 04:14:57;;;;;;;7.80;3.40;;;;;;;14.35;79.69;100995.03;5053878;28;20409;-83
2022/10/29 04:17:22;;;;;;;9.53;3.60;;;;;;;14.32;79.26;100998.25;5039044;28;20422;-83
2022/10/29 04:19:48;;;;;;;10.80;4.00;;;;;;;14.31;79.49;101002.03;5038435;28;20411;-83
2022/10/29 04:22:13;;;;;;;15.93;3.70;;;;;;;14.30;79.19;100997.66;5022138;28;20751;-83
2022/10/29 04:24:38;;;;;;;8.57;3.20;;;;;;;14.28;79.26;100999.81;5039129;28;20789;-83
2022/10/29 04:27:03;;;;;;;28.60;4.70;;;;;;;14.26;79.16;101001.97;5046323;28;20474;-83
2022/10/29 04:29:29;;;;;;;13.83;3.60;;;;;;;14.27;79.49;101000.91;5051124;28;20488;-83
2022/10/29 04:31:54;;;;;;;12.93;3.80;;;;;;;14.26;79.19;101004.69;5052438;28;20879;-83
2022/10/29 04:34:19;;;;;;;9.80;3.47;;;;;;;14.27;79.30;101002.78;5056865;28;20404;-83
2022/10/29 04:36:45;;;;;;;18.60;3.67;;;;;;;14.29;79.15;101000.66;5029115;28;20489;-83
2022/10/29 04:39:10;;;;;;;14.03;4.30;;;;;;;14.26;79.29;101012.88;5034930;28;20412;-83
2022/10/29 04:41:35;;;;;;;14.07;4.30;;;;;;;14.21;79.47;101009.28;5050397;28;20462;-83
2022/10/29 04:44:01;;;;;;;11.70;4.00;;;;;;;14.17;79.50;101003.50;5049837;28;20409;-84
2022/10/29 04:46:27;;;;;;;11.38;4.03;;;;;;;14.16;79.78;101004.56;5051503;28;20421;-84
2022/10/29 04:48:52;;;;;;;11.50;3.35;;;;;;;14.15;79.59;101005.69;5061746;28;20403;-83
2022/10/29 04:51:22;;;;;;;8.57;3.60;;;;;;;14.15;79.75;101002.94;5033836;28;20409;-84
2022/10/29 04:53:48;;;;;;;13.98;3.90;;;;;;;14.14;79.55;101000.47;5048646;28;20414;-83
2022/10/29 04:56:13;;;;;;;14.50;3.27;;;;;;;14.11;79.79;101004.53;5052598;28;20413;-84
2022/10/29 04:58:38;;;;;;;12.25;3.70;;;;;;;14.11;79.41;100998.25;5052593;28;20401;-84
2022/10/29 05:01:04;;;;;;;7.33;3.00;;;;;;;14.09;79.82;101000.44;5052224;28;20413;-83
2022/10/29 05:03:32;;;;;;;8.87;4.17;;;;;;;14.05;79.40;100997.38;5052094;28;20443;-83
2022/10/29 05:05:58;;;;;;;16.33;3.72;;;;;;;14.05;79.54;101005.56;5060453;28;20437;-83
2022/10/29 05:08:23;;;;;;;10.77;3.77;;;;;;;14.02;79.44;101006.06;5051066;28;20433;-83
2022/10/29 05:10:48;;;;;;;5.88;3.53;;;;;;;13.98;79.56;101007.66;5058233;28;20413;-83
2022/10/29 05:13:14;;;;;;;7.53;3.50;;;;;;;13.90;79.60;101006.19;5049891;28;20407;-84
2022/10/29 05:15:40;;;;;;;13.82;3.30;;;;;;;13.90;79.57;101002.63;5051352;28;20413;-84
2022/10/29 05:18:06;;;;;;;12.23;3.65;;;;;;;13.90;79.44;101011.63;5050119;28;20416;-83
2022/10/29 05:20:31;;;;;;;14.02;4.00;;;;;;;13.90;79.15;101005.34;5056669;28;20437;-84
2022/10/29 05:22:59;;;;;;;11.77;3.50;;;;;;;13.89;79.35;101007.28;5054903;28;20836;-83
2022/10/29 05:25:24;;;;;;;7.65;2.90;;;;;;;13.85;78.95;101014.31;5049796;28;20504;-83
2022/10/29 05:27:50;;;;;;;12.45;3.72;;;;;;;13.87;79.22;101016.75;5044216;28;20429;-84
2022/10/29 05:30:15;;;;;;;16.37;3.87;;;;;;;13.87;79.22;101005.84;5048332;28;20409;-83
2022/10/29 05:32:43;;;;;;;8.30;3.80;;;;;;;13.93;79.13;101000.22;5055599;28;20403;-83
2022/10/29 05:35:11;;;;;;;12.47;4.10;;;;;;;13.94;79.01;101001.88;5045570;28;20407;-83
2022/10/29 05:37:36;;;;;;;24.97;4.07;;;;;;;13.93;78.87;101000.22;5050359;28;20455;-83
2022/10/29 05:40:01;;;;;;;15.13;3.87;;;;;;;13.92;78.86;101000.50;5052026;28;20444;-83
2022/10/29 05:42:27;;;;;;;14.07;4.47;;;;;;;13.91;78.81;101002.38;5053137;28;20429;-83
2022/10/29 05:44:52;;;;;;;10.27;3.90;;;;;;;13.84;78.98;101001.75;5055495;28;20419;-83
2022/10/29 05:47:17;;;;;;;15.63;3.90;;;;;;;13.85;79.05;101016.19;5055692;28;20417;-83
2022/10/29 05:49:42;;;;;;;9.47;3.77;;;;;;;13.83;79.36;101019.16;5046465;28;20405;-83
2022/10/29 05:52:08;;;;;;;9.30;3.57;;;;;;;13.83;78.95;101021.09;5043116;28;20935;-83
2022/10/29 05:54:33;;;;;;;11.23;4.43;;;;;;;13.79;79.14;101015.31;5042234;28;20413;-83
2022/10/29 05:56:58;;;;;;;12.03;3.63;;;;;;;13.79;79.04;101014.50;5046426;28;20409;-84
2022/10/29 05:59:24;;;;;;;14.13;3.80;;;;;;;13.76;79.10;101007.66;5043483;28;20413;-83
2022/10/29 06:01:49;;;;;;;9.17;3.20;;;;;;;13.75;79.09;101008.72;5050949;28;20417;-85
2022/10/29 06:04:14;;;;;;;10.55;3.65;;;;;;;13.73;78.92;101005.41;5041152;28;20767;-84
2022/10/29 06:06:40;;;;;;;10.67;3.40;;;;;;;13.72;78.99;101006.50;5047688;28;20469;-84
2022/10/29 06:09:05;;;;;;;3.50;3.00;;;;;;;13.72;78.94;101005.69;5051881;28;20900;-83
2022/10/29 06:11:30;;;;;;;11.43;3.30;;;;;;;13.68;79.07;101005.34;5061558;28;20424;-83
2022/10/29 06:13:56;;;;;;;9.10;3.10;;;;;;;13.67;78.96;101000.97;5043652;28;20416;-84
2022/10/29 06:16:27;;;;;;;12.35;3.60;;;;;;;13.68;78.68;101007.25;5046218;28;20463;-83
2022/10/29 06:18:52;;;;;;;8.98;3.28;;;;;;;13.67;78.72;101008.31;5050954;28;20421;-84
2022/10/29 06:21:17;;;;;;;12.17;3.90;;;;;;;13.68;78.51;101001.81;5046870;28;20510;-84
2022/10/29 06:23:43;;;;;;;7.83;3.10;;;;;;;13.66;78.40;101006.69;5047612;28;20423;-85
2022/10/29 06:26:08;;;;;;;9.23;3.13;;;;;;;13.66;78.65;101007.50;5045866;28;20427;-85
2022/10/29 06:28:33;;;;;;;9.10;3.10;;;;;;;13.68;78.60;101009.97;5029170;28;20413;-84
2022/10/29 06:30:59;;;;;;;18.07;4.03;;;;;;;13.66;78.57;101009.41;5045436;28;20419;-84
2022/10/29 06:33:24;;;;;;;8.27;3.67;;;;;;;13.66;78.60;101010.25;5043249;28;20421;-81
2022/10/29 06:35:49;;;;;;;12.93;3.33;;;;;;;13.65;78.57;101011.31;5042472;28;20429;-81
2022/10/29 06:38:14;;;;;;;12.13;3.87;;;;;;;13.67;78.38;101011.88;5039799;28;20417;-82
2022/10/29 06:40:41;;;;;;;7.67;3.33;;;;;;;13.66;78.60;101018.41;5022173;28;20403;-81
2022/10/29 06:43:09;;;;;;;14.88;3.38;;;;;;;13.68;78.33;101009.97;5040613;28;20513;-80
2022/10/29 06:45:34;;;;;;;10.50;3.75;;;;;;;13.71;78.30;101007.56;5037259;28;20415;-81
2022/10/29 06:48:00;;;;;;;12.80;4.10;;;;;;;13.72;78.37;101017.41;5037629;28;20454;-79
2022/10/29 06:50:26;;;;;;;9.13;4.03;;;;;;;13.74;78.22;101019.84;5039866;28;20397;-80
2022/10/29 06:52:59;;;;;;;10.20;3.97;;;;;;;13.76;78.24;101024.00;5043137;28;20407;-81
2022/10/29 06:55:25;;;;;;;16.33;3.70;;;;;;;13.81;78.51;101023.22;5038545;28;20416;-79
2022/10/29 06:58:03;;;;;;;13.15;4.43;;;;;;;13.84;78.27;101025.44;5046223;28;21769;-80
2022/10/29 07:00:29;;;;;;;10.32;4.32;;;;;;;13.87;78.35;101025.75;5038423;28;20418;-80
2022/10/29 07:02:55;;;;;;;12.80;4.10;;;;;;;13.90;78.39;101025.25;5036636;28;20446;-79
2022/10/29 07:05:21;;;;;;;10.75;4.28;;;;;;;13.95;78.70;101024.50;5030949;28;20417;-81
2022/10/29 07:07:46;;;;;;;11.00;4.82;;;;;;;13.98;78.67;101024.81;5031386;28;20402;-80
2022/10/29 07:10:12;;;;;;;14.27;5.17;;;;;;;14.01;78.94;101021.59;5033280;28;20412;-80
2022/10/29 07:12:39;;;;;;;17.70;4.60;;;;;;;14.06;78.89;101020.84;5038104;28;20409;-81
2022/10/29 07:15:05;;;;;;;16.95;4.90;;;;;;;14.10;79.05;101021.13;5018847;28;20420;-79
2022/10/29 07:17:30;;;;;;;10.07;4.38;;;;;;;14.13;78.81;101023.38;5038202;28;20427;-79
2022/10/29 07:19:55;;;;;;;21.63;8.20;;;;;;;14.16;79.02;101023.66;5035934;28;20509;-82
2022/10/29 07:22:20;;;;;;;16.33;4.77;;;;;;;14.20;79.30;101016.63;5029294;28;21516;-80
2022/10/29 07:24:46;;;;;;;12.13;5.17;;;;;;;14.23;79.09;101023.47;5035917;28;20417;-84
2022/10/29 07:27:11;;;;;;;14.00;5.00;;;;;;;14.24;79.01;101023.22;5036079;28;21164;-78
2022/10/29 07:29:36;;;;;;;12.48;4.70;;;;;;;14.25;79.09;101022.16;5029912;28;20409;-79
2022/10/29 07:32:02;;;;;;;12.03;4.20;;;;;;;14.25;79.34;101024.88;5029673;28;20569;-80
2022/10/29 07:34:27;;;;;;;11.93;4.50;;;;;;;14.27;79.49;101030.06;5042343;28;20410;-83
2022/10/29 07:36:52;;;;;;;14.10;4.40;;;;;;;14.26;79.44;101026.50;5044927;28;20405;-80
2022/10/29 07:39:18;;;;;;;10.13;4.00;;;;;;;14.27;79.63;101021.88;5040376;28;20447;-80
2022/10/29 07:41:43;;;;;;;13.13;4.33;;;;;;;14.31;79.50;101037.47;5033486;28;20512;-80
2022/10/29 07:44:08;;;;;;;12.97;4.87;;;;;;;14.31;80.02;101034.75;5029607;28;20405;-80
2022/10/29 07:46:34;;;;;;;12.10;5.33;;;;;;;14.30;80.06;101041.28;5032743;28;20423;-80
2022/10/29 07:48:59;;;;;;;18.50;6.03;;;;;;;14.37;79.96;101032.94;5028669;28;20405;-80
2022/10/29 07:51:24;;;;;;;16.50;6.33;;;;;;;14.40;79.84;101041.44;5028138;28;20418;-80
2022/10/29 07:53:49;;;;;;;14.75;6.13;;;;;;;14.48;80.03;101037.44;5034117;28;21007;-80
2022/10/29 07:56:15;;;;;;;17.07;6.17;;;;;;;14.51;80.04;101036.91;5034179;28;20409;-79
2022/10/29 07:58:40;;;;;;;16.27;5.03;;;;;;;14.58;79.90;101034.81;5030780;28;20435;-79
2022/10/29 08:01:05;;;;;;;12.25;5.13;;;;;;;14.68;79.60;101034.91;5016300;28;20415;-79
2022/10/29 08:03:31;;;;;;;14.67;5.80;;;;;;;14.75;79.49;101030.03;5040312;28;20404;-79
2022/10/29 08:05:56;;;;;;;9.43;4.80;;;;;;;14.81;79.36;101039.94;5039851;28;20453;-80
2022/10/29 08:08:21;;;;;;;16.37;5.27;;;;;;;14.84;79.35;101044.88;5037109;28;20412;-79
2022/10/29 08:10:47;;;;;;;13.63;5.13;;;;;;;14.90;79.37;101037.56;5041016;28;20417;-79
2022/10/29 08:13:12;;;;;;;13.00;4.60;;;;;;;14.97;79.34;101040.91;5039997;28;20405;-79
2022/10/29 08:15:37;;;;;;;12.13;3.93;;;;;;;15.01;79.13;101039.31;5039724;28;20417;-80
2022/10/29 08:18:10;;;;;;;10.43;4.90;;;;;;;15.03;79.16;101037.13;5045238;28;20412;-79
2022/10/29 08:20:35;;;;;;;10.50;4.97;;;;;;;15.03;79.29;101032.50;5043391;28;20417;-79
2022/10/29 08:23:00;;;;;;;11.83;5.60;;;;;;;15.09;79.06;101030.63;5050772;28;20416;-79
2022/10/29 08:25:26;;;;;;;14.67;5.63;;;;;;;15.18;78.91;101031.00;5051282;28;20398;-78
2022/10/29 08:27:59;;;;;;;16.73;5.47;;;;;;;15.22;78.75;101038.38;5057359;28;20398;-78
2022/10/29 08:30:24;;;;;;;15.45;5.13;;;;;;;15.24;78.64;101036.22;5051327;28;20493;-79
2022/10/29 08:32:49;;;;;;;16.23;5.67;;;;;;;15.27;78.52;101038.44;5054892;28;20540;-79
2022/10/29 08:35:15;;;;;;;16.87;6.83;;;;;;;15.28;78.31;101029.13;5055305;28;20397;-79
2022/10/29 08:37:42;;;;;;;11.80;5.63;;;;;;;15.29;78.29;101029.97;5059958;28;20861;-79
2022/10/29 08:40:15;;;;;;;11.20;5.75;;;;;;;15.28;78.48;101028.34;5042838;28;20822;-78
2022/10/29 08:43:05;;;;;;;9.98;5.70;;;;;;;15.30;78.48;101020.69;5048840;28;20432;-78
2022/10/29 08:45:44;;;;;;;8.85;5.93;;;;;;;15.36;78.33;101025.94;5057626;28;20405;-79
2022/10/29 08:48:45;;;;;;;14.40;5.55;;;;;;;15.42;78.46;101035.78;5055785;28;20402;-81
2022/10/29 08:51:24;;;;;;;20.58;8.15;;;;;;;15.47;78.46;101030.38;5052082;28;20417;-79
2022/10/29 08:53:52;;;;;;;9.68;6.22;;;;;;;15.63;78.36;101045.00;5052792;28;20386;-79
2022/10/29 08:56:29;;;;;;;16.25;6.60;;;;;;;15.75;77.88;101036.56;5032809;28;20413;-78
2022/10/29 08:59:02;;;;;;;17.10;5.95;;;;;;;15.80;77.76;101036.63;5061142;28;20407;-79
2022/10/29 09:01:28;;;;;;;13.32;5.47;;;;;;;15.94;77.35;101045.97;5059820;28;20389;-80
2022/10/29 09:03:53;;;;;;;12.13;5.78;;;;;;;16.03;76.61;101041.66;5051695;28;20452;-80
2022/10/29 09:06:29;;;;;;;16.23;5.82;;;;;;;16.13;76.07;101030.75;5059765;28;20452;-80
2022/10/29 09:09:24;;;;;;;18.15;5.47;;;;;;;16.20;76.46;101033.25;5050219;28;20467;-79
2022/10/29 09:12:00;;;;;;;17.10;6.20;;;;;;;16.35;76.53;101034.09;5048268;28;20390;-80
2022/10/29 09:14:50;;;;;;;21.17;5.65;;;;;;;16.48;76.80;101033.59;5052768;28;20390;-79
2022/10/29 09:17:35;;;;;;;16.30;5.55;;;;;;;16.70;76.59;101027.91;5064599;28;20968;-80
2022/10/29 09:20:24;;;;;;;11.27;5.20;;;;;;;17.25;75.18;101027.13;5045062;28;20756;-79
2022/10/29 09:23:13;;;;;;;15.63;5.15;;;;;;;17.88;72.79;101035.81;5054672;28;20439;-79
2022/10/29 09:25:48;;;;;;;7.40;4.53;;;;;;;17.80;72.66;101028.16;5046279;28;20421;-79
2022/10/29 09:28:29;;;;;;;14.02;5.70;;;;;;;17.49;73.95;101019.97;5051752;28;20871;-80
2022/10/29 09:31:11;;;;;;;14.60;5.33;;;;;;;17.62;73.68;101018.59;5057569;28;20810;-81
2022/10/29 09:33:38;;;;;;;11.60;4.83;;;;;;;17.74;73.45;101018.28;5047404;28;20416;-79
2022/10/29 09:36:20;;;;;;;13.23;4.97;;;;;;;17.95;73.23;101017.94;5042908;28;20969;-80
2022/10/29 09:39:01;;;;;;;15.85;4.90;;;;;;;18.74;71.00;101024.44;5050481;28;20438;-80
2022/10/29 09:41:30;;;;;;;15.18;4.70;;;;;;;19.71;67.80;101017.78;5049687;28;20422;-80
2022/10/29 09:44:03;;;;;;;10.65;4.57;;;;;;;20.77;63.44;101029.38;5053431;28;20405;-79
2022/10/29 09:46:43;;;;;;;18.40;4.75;;;;;;;21.35;61.56;101036.16;5050022;28;20421;-80
2022/10/29 09:49:32;;;;;;;12.75;4.72;;;;;;;21.54;60.81;101034.13;5047140;28;20420;-79
2022/10/29 09:52:03;;;;;;;10.02;4.25;;;;;;;21.62;60.17;101022.41;5018056;28;20410;-80
2022/10/29 09:54:30;;;;;;;11.13;4.82;;;;;;;21.28;61.37;101029.38;5052133;28;20494;-86
2022/10/29 09:56:57;;;;;;;10.40;4.47;;;;;;;21.40;61.86;101033.31;5052105;28;20393;-80
2022/10/29 09:59:34;;;;;;;19.13;4.97;;;;;;;22.13;59.76;101049.84;5052357;28;20393;-80
2022/10/29 10:02:00;;;;;;;14.27;4.05;;;;;;;22.79;57.66;101036.56;5051022;28;20401;-78
2022/10/29 10:04:34;;;;;;;16.52;4.90;;;;;;;23.16;56.54;101034.25;5059740;28;20403;-79
2022/10/29 10:07:11;;;;;;;9.47;4.10;;;;;;;23.84;54.79;101043.28;5051911;28;20424;-79
2022/10/29 10:09:50;;;;;;;7.68;4.00;;;;;;;24.07;54.15;101033.78;5053364;28;20420;-79
2022/10/29 10:12:15;;;;;;;12.15;4.38;;;;;;;24.46;52.99;101038.44;5054921;28;20473;-79
2022/10/29 10:14:41;;;;;;;10.87;4.37;;;;;;;24.98;51.31;101029.03;5055795;28;20487;-79
2022/10/29 10:17:06;;;;;;;12.93;4.57;;;;;;;25.04;50.73;101024.94;5053638;28;20405;-79
2022/10/29 10:19:32;;;;;;;10.45;4.47;;;;;;;23.77;53.10;101011.34;5053591;28;20463;-79
2022/10/29 10:22:03;;;;;;;11.20;4.60;;;;;;;22.33;57.86;101015.47;5051257;28;20397;-78
2022/10/29 10:24:34;;;;;;;12.23;4.50;;;;;;;21.34;60.67;101015.19;5052693;28;20409;-79
2022/10/29 10:27:00;;;;;;;10.65;4.28;;;;;;;20.78;62.38;101017.25;5057848;28;20417;-80
2022/10/29 10:29:26;;;;;;;7.88;4.32;;;;;;;20.48;63.62;101013.78;5056265;28;20382;-80
2022/10/29 10:31:55;;;;;;;9.27;4.00;;;;;;;20.31;64.27;101009.94;5054200;28;20397;-81
2022/10/29 10:34:23;;;;;;;9.52;4.18;;;;;;;20.17;64.55;101005.13;5053857;28;20398;-79
2022/10/29 10:36:52;;;;;;;12.13;3.72;;;;;;;20.04;65.18;101000.34;5049309;28;20490;-79
2022/10/29 10:39:23;;;;;;;13.05;4.60;;;;;;;20.01;65.55;100989.13;5058018;28;20445;-80
2022/10/29 10:41:50;;;;;;;7.07;3.40;;;;;;;20.01;65.71;100981.69;5050634;28;20417;-79
2022/10/29 10:44:16;;;;;;;9.48;3.58;;;;;;;19.99;65.81;100980.34;5057861;28;20452;-79
2022/10/29 10:46:43;;;;;;;11.33;4.53;;;;;;;20.01;65.73;100976.19;5051665;28;20801;-79
2022/10/29 10:49:38;;;;;;;8.77;3.83;;;;;;;20.06;65.66;100970.59;5051460;28;20397;-79
2022/10/29 10:52:25;;;;;;;7.70;3.80;;;;;;;20.04;65.91;100961.84;5018437;28;20892;-79
2022/10/29 10:55:22;;;;;;;13.90;4.05;;;;;;;19.97;66.15;100955.03;5030636;28;20749;-79
2022/10/29 10:57:54;;;;;;;11.30;3.90;;;;;;;19.92;66.00;100953.16;5054309;28;20413;-79
2022/10/29 11:00:21;;;;;;;8.35;3.88;;;;;;;19.90;66.26;100949.06;5054878;28;20452;-80
2022/10/29 11:03:00;;;;;;;10.87;3.87;;;;;;;19.91;66.35;100950.72;5052014;28;20402;-79
2022/10/29 11:05:36;;;;;;;10.60;4.20;;;;;;;19.90;66.52;100938.91;5056698;28;20428;-80
2022/10/29 11:08:18;;;;;;;12.27;4.15;;;;;;;19.89;65.97;100937.25;5051930;28;20409;-78
2022/10/29 11:11:24;;;;;;;10.40;4.32;;;;;;;19.83;66.34;100937.63;5052772;28;20486;-78
2022/10/29 11:13:57;;;;;;;11.73;4.28;;;;;;;19.80;66.07;100924.47;4980755;28;20420;-79
2022/10/29 11:16:37;;;;;;;12.27;4.15;;;;;;;19.81;65.39;100920.59;5039714;28;20415;-78
2022/10/29 11:19:19;;;;;;;13.23;3.95;;;;;;;19.81;65.67;100921.41;5032410;28;20399;-78
2022/10/29 11:21:59;;;;;;;9.80;3.70;;;;;;;19.81;66.33;100929.69;5056400;28;20494;-77
2022/10/29 11:24:54;;;;;;;7.57;3.65;;;;;;;19.78;66.71;100919.25;5053227;28;20392;-78
2022/10/29 11:27:39;;;;;;;9.10;3.60;;;;;;;19.82;66.84;100914.00;5052107;28;20415;-78
2022/10/29 11:30:16;;;;;;;10.68;3.47;;;;;;;19.84;66.76;100915.34;5047183;28;20409;-77
2022/10/29 11:33:16;;;;;;;11.88;4.00;;;;;;;19.86;66.44;100904.84;5032849;28;20497;-77